Time;durP1;ratioP1;P1;durP2;ratioP2;P2;SDS_P1;SDS_P2;PMS_P1;PMS_P2;Temp;Humidity;BMP_temperature;BMP_pressure;BME280_temperature;BME280_humidity;BME280_pressure;Samples;Min_cycle;Max_cycle;Signal;HPM_P1;HPM_P2
2022/06/08 00:00:25;;;;;;;12.18;7.38;;;;;;;;;;5012816;28;20045;-76
2022/06/08 00:03:14;;;;;;;7.78;6.75;;;;;;;;;;5012783;28;20030;-76
2022/06/08 00:05:39;;;;;;;9.60;7.53;;;;;;;;;;5012986;28;20030;-76
2022/06/08 00:08:05;;;;;;;9.23;8.02;;;;;;;;;;4995201;28;20029;-76
2022/06/08 00:10:30;;;;;;;8.88;7.82;;;;;;;;;;5012695;28;20068;-75
2022/06/08 00:12:56;;;;;;;13.27;7.55;;;;;;;;;;5012800;28;20379;-76
2022/06/08 00:15:22;;;;;;;9.70;7.28;;;;;;;;;;5015182;28;20030;-76
2022/06/08 00:17:47;;;;;;;8.98;6.88;;;;;;;;;;5016119;28;20033;-76
2022/06/08 00:20:13;;;;;;;8.93;7.07;;;;;;;;;;4998608;28;20033;-75
2022/06/08 00:22:39;;;;;;;9.35;7.38;;;;;;;;;;5016149;28;20298;-76
2022/06/08 00:25:05;;;;;;;9.80;8.35;;;;;;;;;;5016038;28;20029;-76
2022/06/08 00:27:30;;;;;;;13.07;7.93;;;;;;;;;;5015924;28;20030;-76
2022/06/08 00:29:56;;;;;;;10.67;7.20;;;;;;;;;;5016285;28;20096;-77
2022/06/08 00:32:21;;;;;;;9.18;7.57;;;;;;;;;;5015817;28;20326;-77
2022/06/08 00:34:46;;;;;;;9.33;7.73;;;;;;;;;;5016183;28;20064;-76
2022/06/08 00:37:12;;;;;;;9.27;7.65;;;;;;;;;;5015830;28;20282;-77
2022/06/08 00:39:37;;;;;;;10.25;7.82;;;;;;;;;;5015771;28;20022;-76
2022/06/08 00:42:06;;;;;;;12.10;8.00;;;;;;;;;;4998237;28;20550;-76
2022/06/08 00:44:42;;;;;;;9.90;8.05;;;;;;;;;;5015739;28;20025;-76
2022/06/08 00:47:12;;;;;;;11.05;8.23;;;;;;;;;;5015833;28;20079;-76
2022/06/08 00:49:47;;;;;;;11.30;8.25;;;;;;;;;;5015884;28;20029;-75
2022/06/08 00:52:13;;;;;;;10.82;8.02;;;;;;;;;;4997892;28;20026;-76
2022/06/08 00:54:47;;;;;;;8.43;7.43;;;;;;;;;;5015503;28;20502;-77
2022/06/08 00:57:19;;;;;;;10.02;7.80;;;;;;;;;;5015414;28;20112;-76
2022/06/08 00:59:50;;;;;;;8.82;7.90;;;;;;;;;;4997843;28;20026;-75
2022/06/08 01:02:16;;;;;;;10.23;8.40;;;;;;;;;;5015388;28;20423;-76
2022/06/08 01:04:41;;;;;;;9.48;8.10;;;;;;;;;;5015335;28;20044;-77
2022/06/08 01:07:07;;;;;;;10.80;8.07;;;;;;;;;;5015099;28;20450;-76
2022/06/08 01:09:38;;;;;;;10.00;8.38;;;;;;;;;;5015299;28;20252;-76
2022/06/08 01:12:09;;;;;;;12.05;8.27;;;;;;;;;;4997595;28;20032;-76
2022/06/08 01:14:35;;;;;;;8.82;7.80;;;;;;;;;;4997647;28;20080;-76
2022/06/08 01:17:07;;;;;;;9.15;7.65;;;;;;;;;;5014964;28;20034;-76
2022/06/08 01:19:34;;;;;;;10.13;8.40;;;;;;;;;;4997457;28;20557;-75
2022/06/08 01:22:02;;;;;;;10.35;8.23;;;;;;;;;;5015015;28;20116;-76
2022/06/08 01:24:28;;;;;;;12.45;7.75;;;;;;;;;;5015090;28;20034;-75
2022/06/08 01:26:58;;;;;;;11.25;7.85;;;;;;;;;;5014249;28;20044;-75
2022/06/08 01:30:04;;;;;;;9.80;7.72;;;;;;;;;;5014850;28;20067;-76
2022/06/08 01:33:16;;;;;;;11.45;8.13;;;;;;;;;;5014621;28;20117;-76
2022/06/08 01:35:56;;;;;;;9.80;8.05;;;;;;;;;;5015060;28;20022;-77
2022/06/08 01:38:56;;;;;;;9.68;7.78;;;;;;;;;;5014962;28;20497;-76
2022/06/08 01:41:33;;;;;;;11.30;7.97;;;;;;;;;;5014966;28;20025;-75
2022/06/08 01:44:06;;;;;;;11.52;7.97;;;;;;;;;;5014674;28;20065;-76
2022/06/08 01:46:41;;;;;;;8.88;7.88;;;;;;;;;;5014776;28;20029;-76
2022/06/08 01:49:28;;;;;;;8.73;7.82;;;;;;;;;;5014823;28;20115;-76
2022/06/08 01:52:16;;;;;;;11.02;7.78;;;;;;;;;;5014507;28;20064;-76
2022/06/08 01:54:56;;;;;;;9.43;7.72;;;;;;;;;;5014748;28;20092;-75
2022/06/08 01:57:46;;;;;;;8.90;8.00;;;;;;;;;;5014572;28;20494;-75
2022/06/08 02:00:30;;;;;;;11.90;8.80;;;;;;;;;;4996739;28;20462;-75
2022/06/08 02:03:08;;;;;;;9.45;8.10;;;;;;;;;;4996676;28;20053;-79
2022/06/08 02:05:56;;;;;;;9.45;8.00;;;;;;;;;;5014502;28;20080;-72
2022/06/08 02:08:46;;;;;;;10.10;7.60;;;;;;;;;;5014372;28;20049;-73
2022/06/08 02:11:27;;;;;;;10.35;8.40;;;;;;;;;;5014288;28;20061;-73
2022/06/08 02:13:57;;;;;;;8.80;7.88;;;;;;;;;;4996633;28;20499;-73
2022/06/08 02:16:33;;;;;;;8.82;7.75;;;;;;;;;;4996396;28;20057;-73
2022/06/08 02:19:05;;;;;;;10.88;8.48;;;;;;;;;;4996657;28;20029;-73
2022/06/08 02:21:41;;;;;;;10.25;7.78;;;;;;;;;;5014256;28;20076;-72
2022/06/08 02:24:15;;;;;;;8.95;7.20;;;;;;;;;;5014372;28;20084;-72
2022/06/08 02:26:51;;;;;;;9.38;8.32;;;;;;;;;;5014258;28;20022;-72
2022/06/08 02:29:26;;;;;;;10.20;8.50;;;;;;;;;;5014149;28;20525;-73
2022/06/08 02:31:57;;;;;;;8.65;7.75;;;;;;;;;;4996578;28;20057;-73
2022/06/08 02:34:34;;;;;;;11.15;8.18;;;;;;;;;;5014315;28;20109;-73
2022/06/08 02:37:11;;;;;;;9.88;7.72;;;;;;;;;;5014200;28;20452;-73
2022/06/08 02:39:49;;;;;;;10.82;7.90;;;;;;;;;;5014554;28;20026;-73
2022/06/08 02:42:24;;;;;;;11.00;8.13;;;;;;;;;;5014153;28;20045;-72
2022/06/08 02:44:53;;;;;;;11.00;8.02;;;;;;;;;;5014425;28;20026;-76
2022/06/08 02:47:29;;;;;;;12.68;8.18;;;;;;;;;;5013471;28;20029;-75
2022/06/08 02:49:55;;;;;;;10.02;8.50;;;;;;;;;;5013594;28;20033;-76
2022/06/08 02:52:25;;;;;;;10.13;8.45;;;;;;;;;;5013376;28;20026;-75
2022/06/08 02:54:51;;;;;;;11.63;8.20;;;;;;;;;;4995777;28;20033;-76
2022/06/08 02:57:44;;;;;;;11.63;8.07;;;;;;;;;;5013240;28;20048;-75
2022/06/08 03:00:16;;;;;;;9.77;7.60;;;;;;;;;;5013687;28;20475;-75
2022/06/08 03:02:52;;;;;;;9.60;8.50;;;;;;;;;;5013257;28;20030;-75
2022/06/08 03:05:40;;;;;;;12.15;7.90;;;;;;;;;;5013596;28;20030;-75
2022/06/08 03:08:24;;;;;;;11.07;8.07;;;;;;;;;;5013938;28;20387;-76
2022/06/08 03:10:52;;;;;;;9.38;8.15;;;;;;;;;;5013728;28;20414;-76
2022/06/08 03:13:21;;;;;;;11.98;8.35;;;;;;;;;;5013215;28;20072;-76
2022/06/08 03:15:57;;;;;;;13.20;8.70;;;;;;;;;;4995691;28;20510;-76
2022/06/08 03:18:23;;;;;;;16.17;8.85;;;;;;;;;;5013445;28;20505;-77
2022/06/08 03:20:48;;;;;;;11.07;8.48;;;;;;;;;;5013246;28;20033;-76
2022/06/08 03:23:14;;;;;;;11.13;8.68;;;;;;;;;;4995393;28;20026;-75
2022/06/08 03:25:39;;;;;;;11.88;9.52;;;;;;;;;;5013183;28;20112;-76
2022/06/08 03:28:05;;;;;;;12.18;9.20;;;;;;;;;;5013085;28;20018;-76
2022/06/08 03:30:30;;;;;;;13.18;9.23;;;;;;;;;;5013081;28;20034;-75
2022/06/08 03:32:56;;;;;;;11.90;8.85;;;;;;;;;;5012940;28;20479;-75
2022/06/08 03:35:21;;;;;;;13.52;9.18;;;;;;;;;;5012989;28;20065;-76
2022/06/08 03:37:47;;;;;;;12.07;9.75;;;;;;;;;;4995248;28;20049;-76
2022/06/08 03:40:13;;;;;;;13.25;9.52;;;;;;;;;;5012856;28;20112;-76
2022/06/08 03:42:38;;;;;;;12.95;10.15;;;;;;;;;;5013222;28;20104;-76
2022/06/08 03:45:05;;;;;;;14.05;10.38;;;;;;;;;;5013181;28;20026;-76
2022/06/08 03:47:37;;;;;;;11.65;9.93;;;;;;;;;;5012984;28;20459;-74
2022/06/08 03:50:05;;;;;;;14.77;10.68;;;;;;;;;;5014760;28;20493;-75
2022/06/08 03:52:35;;;;;;;15.45;10.38;;;;;;;;;;5016670;28;20112;-75
2022/06/08 03:55:03;;;;;;;15.02;9.90;;;;;;;;;;5016610;28;20376;-76
2022/06/08 03:57:30;;;;;;;14.45;10.43;;;;;;;;;;5016524;28;20104;-76
2022/06/08 04:00:00;;;;;;;14.75;9.90;;;;;;;;;;5016518;28;20129;-76
2022/06/08 04:02:26;;;;;;;11.95;9.43;;;;;;;;;;5016506;28;20022;-76
2022/06/08 04:04:51;;;;;;;12.90;9.75;;;;;;;;;;5016760;28;20372;-75
2022/06/08 04:07:17;;;;;;;11.90;9.73;;;;;;;;;;5016377;28;20165;-75
2022/06/08 04:09:42;;;;;;;14.48;9.63;;;;;;;;;;5016314;28;20743;-75
2022/06/08 04:12:08;;;;;;;12.00;9.07;;;;;;;;;;5016463;28;20105;-77
2022/06/08 04:14:34;;;;;;;12.23;9.15;;;;;;;;;;5016593;28;20029;-76
2022/06/08 04:17:01;;;;;;;13.27;8.80;;;;;;;;;;5016144;28;20026;-75
2022/06/08 04:19:26;;;;;;;12.07;9.50;;;;;;;;;;5016414;28;20053;-75
2022/06/08 04:21:52;;;;;;;11.80;8.65;;;;;;;;;;5016018;28;20076;-75
2022/06/08 04:24:18;;;;;;;12.45;9.25;;;;;;;;;;5016058;28;20034;-74
2022/06/08 04:26:44;;;;;;;13.10;8.85;;;;;;;;;;5015992;28;20486;-75
2022/06/08 04:29:09;;;;;;;9.68;7.85;;;;;;;;;;5015941;28;20068;-74
2022/06/08 04:31:35;;;;;;;12.15;8.20;;;;;;;;;;5016033;28;20022;-75
2022/06/08 04:34:03;;;;;;;11.85;8.20;;;;;;;;;;5015838;28;20086;-75
2022/06/08 04:36:29;;;;;;;13.32;8.02;;;;;;;;;;5016095;28;20034;-75
2022/06/08 04:38:54;;;;;;;8.45;7.07;;;;;;;;;;4998211;28;20398;-75
2022/06/08 04:41:22;;;;;;;9.43;6.70;;;;;;;;;;5015726;28;20372;-75
2022/06/08 04:43:47;;;;;;;8.70;6.80;;;;;;;;;;5015786;28;20399;-75
2022/06/08 04:46:16;;;;;;;9.07;6.80;;;;;;;;;;5015303;28;20026;-74
2022/06/08 04:48:46;;;;;;;11.80;7.13;;;;;;;;;;4998125;28;20120;-76
2022/06/08 04:51:13;;;;;;;9.10;6.53;;;;;;;;;;4997875;28;20030;-73
2022/06/08 04:53:39;;;;;;;13.00;10.23;;;;;;;;;;5015492;28;20113;-75
2022/06/08 04:56:05;;;;;;;9.43;6.38;;;;;;;;;;5016110;28;20475;-75
2022/06/08 04:58:31;;;;;;;8.75;6.38;;;;;;;;;;5015441;28;20022;-76
2022/06/08 05:00:56;;;;;;;7.97;6.13;;;;;;;;;;5015596;28;20029;-76
2022/06/08 05:03:22;;;;;;;8.25;6.25;;;;;;;;;;4997686;28;20029;-76
2022/06/08 05:05:47;;;;;;;7.32;6.30;;;;;;;;;;5015534;28;20018;-76
2022/06/08 05:08:14;;;;;;;7.47;6.07;;;;;;;;;;5015351;28;20468;-76
2022/06/08 05:10:39;;;;;;;11.80;5.80;;;;;;;;;;4997701;28;20029;-76
2022/06/08 05:13:06;;;;;;;8.67;6.07;;;;;;;;;;4997517;28;20080;-76
2022/06/08 05:15:34;;;;;;;7.10;5.55;;;;;;;;;;5015122;28;20271;-76
2022/06/08 05:18:00;;;;;;;9.10;5.60;;;;;;;;;;5014913;28;20109;-77
2022/06/08 05:20:27;;;;;;;7.05;5.55;;;;;;;;;;5015044;28;20100;-76
2022/06/08 05:22:53;;;;;;;8.27;5.20;;;;;;;;;;4997679;28;20164;-75
2022/06/08 05:25:30;;;;;;;5.93;5.25;;;;;;;;;;5015210;28;20473;-75
2022/06/08 05:27:56;;;;;;;7.63;5.32;;;;;;;;;;5014909;28;20025;-76
2022/06/08 05:30:22;;;;;;;7.05;5.70;;;;;;;;;;5015160;28;20077;-76
2022/06/08 05:32:48;;;;;;;7.65;5.40;;;;;;;;;;5014699;28;20117;-77
2022/06/08 05:35:13;;;;;;;6.65;5.10;;;;;;;;;;5015095;28;20061;-76
2022/06/08 05:37:39;;;;;;;6.80;5.47;;;;;;;;;;5014906;28;20040;-76
2022/06/08 05:40:06;;;;;;;7.55;5.53;;;;;;;;;;5014206;28;20479;-76
2022/06/08 05:42:31;;;;;;;5.85;4.88;;;;;;;;;;5013271;28;20033;-76
2022/06/08 05:44:57;;;;;;;6.10;4.75;;;;;;;;;;5014369;28;20022;-76
2022/06/08 05:47:23;;;;;;;5.90;5.10;;;;;;;;;;5014548;28;20018;-76
2022/06/08 05:49:48;;;;;;;5.03;4.05;;;;;;;;;;5014727;28;20489;-76
2022/06/08 05:52:13;;;;;;;6.65;4.78;;;;;;;;;;5014569;28;20026;-77
2022/06/08 05:54:39;;;;;;;7.90;4.70;;;;;;;;;;5014651;28;20105;-76
2022/06/08 05:57:04;;;;;;;6.53;4.47;;;;;;;;;;5014309;28;20113;-76
2022/06/08 05:59:30;;;;;;;8.07;4.20;;;;;;;;;;4996562;28;20272;-76
2022/06/08 06:01:55;;;;;;;6.95;4.43;;;;;;;;;;4996559;28;20373;-76
2022/06/08 06:04:21;;;;;;;5.85;4.43;;;;;;;;;;5014077;28;20030;-76
2022/06/08 06:06:46;;;;;;;5.10;4.07;;;;;;;;;;4996397;28;20387;-75
2022/06/08 06:09:13;;;;;;;5.53;3.88;;;;;;;;;;5014150;28;20033;-75
2022/06/08 06:11:39;;;;;;;6.57;4.28;;;;;;;;;;5013822;28;20029;-75
2022/06/08 06:14:04;;;;;;;8.10;4.07;;;;;;;;;;5013645;28;20037;-76
2022/06/08 06:16:30;;;;;;;6.22;3.20;;;;;;;;;;5014071;28;20025;-77
2022/06/08 06:18:55;;;;;;;5.38;3.13;;;;;;;;;;5014182;28;20030;-76
2022/06/08 06:21:25;;;;;;;5.40;3.15;;;;;;;;;;5014354;28;20057;-76
2022/06/08 06:23:52;;;;;;;2.85;2.55;;;;;;;;;;5013771;28;20505;-75
2022/06/08 06:26:17;;;;;;;4.68;2.60;;;;;;;;;;5013731;28;20068;-76
2022/06/08 06:28:42;;;;;;;3.47;2.80;;;;;;;;;;5013867;28;20467;-76
2022/06/08 06:31:13;;;;;;;10.33;5.23;;;;;;;;;;5013710;28;20265;-76
2022/06/08 06:33:38;;;;;;;4.93;3.10;;;;;;;;;;5013610;28;20271;-76
2022/06/08 06:36:04;;;;;;;5.60;3.07;;;;;;;;;;5013447;28;20053;-76
2022/06/08 06:38:29;;;;;;;3.13;2.63;;;;;;;;;;5013303;28;20267;-76
2022/06/08 06:40:55;;;;;;;4.10;2.83;;;;;;;;;;5013819;28;20037;-76
2022/06/08 06:43:20;;;;;;;4.65;3.08;;;;;;;;;;4995768;28;20033;-75
2022/06/08 06:45:45;;;;;;;4.07;2.90;;;;;;;;;;4995823;28;20079;-75
2022/06/08 06:48:11;;;;;;;4.57;2.45;;;;;;;;;;4995842;28;20029;-76
2022/06/08 06:50:36;;;;;;;3.17;2.70;;;;;;;;;;5013848;28;20464;-75
2022/06/08 06:53:01;;;;;;;8.23;2.85;;;;;;;;;;5013467;28;20784;-76
2022/06/08 06:55:31;;;;;;;5.15;2.70;;;;;;;;;;5013272;28;20028;-76
2022/06/08 06:57:57;;;;;;;4.90;2.90;;;;;;;;;;4995669;28;20026;-76
2022/06/08 07:00:22;;;;;;;4.38;2.60;;;;;;;;;;4995558;28;20022;-76
2022/06/08 07:02:48;;;;;;;3.78;2.58;;;;;;;;;;4995514;28;20050;-76
2022/06/08 07:05:19;;;;;;;7.50;2.33;;;;;;;;;;5013113;28;20030;-76
2022/06/08 07:07:45;;;;;;;4.22;2.15;;;;;;;;;;5013158;28;20030;-76
2022/06/08 07:10:10;;;;;;;2.80;2.00;;;;;;;;;;5013277;28;20132;-76
2022/06/08 07:12:36;;;;;;;3.00;2.30;;;;;;;;;;5013021;28;20120;-77
2022/06/08 07:15:02;;;;;;;2.67;2.10;;;;;;;;;;4995507;28;20048;-76
2022/06/08 07:17:28;;;;;;;3.65;2.05;;;;;;;;;;5012958;28;20030;-76
2022/06/08 07:19:53;;;;;;;2.80;2.03;;;;;;;;;;5013007;28;20084;-76
2022/06/08 07:22:18;;;;;;;5.53;2.10;;;;;;;;;;5013080;28;20037;-77
2022/06/08 07:24:43;;;;;;;4.23;2.00;;;;;;;;;;5014070;28;20033;-75
2022/06/08 07:27:09;;;;;;;3.90;1.90;;;;;;;;;;5017356;28;20278;-76
2022/06/08 07:29:34;;;;;;;2.80;1.75;;;;;;;;;;5016902;28;20034;-76
2022/06/08 07:32:00;;;;;;;4.85;1.90;;;;;;;;;;5016680;28;20033;-76
2022/06/08 07:34:26;;;;;;;3.55;1.73;;;;;;;;;;5015557;28;20026;-76
2022/06/08 07:36:51;;;;;;;5.88;1.65;;;;;;;;;;5015745;28;20026;-75
2022/06/08 07:39:19;;;;;;;3.88;1.80;;;;;;;;;;5015655;28;20036;-75
2022/06/08 07:41:46;;;;;;;3.97;2.03;;;;;;;;;;5015593;28;20021;-76
2022/06/08 07:44:11;;;;;;;7.13;1.95;;;;;;;;;;5015547;28;20032;-76
2022/06/08 07:46:37;;;;;;;4.67;1.83;;;;;;;;;;5015441;28;20390;-74
2022/06/08 07:51:53;;;;;;;5.72;1.95;;;;;;;;;;5015525;28;20033;-76
2022/06/08 07:54:19;;;;;;;3.95;2.08;;;;;;;;;;5015414;28;20457;-75
2022/06/08 07:56:44;;;;;;;2.35;1.92;;;;;;;;;;5015099;28;20104;-76
2022/06/08 07:59:10;;;;;;;2.83;2.00;;;;;;;;;;5015975;28;20058;-76
2022/06/08 08:01:35;;;;;;;5.73;2.00;;;;;;;;;;5015157;28;20263;-76
2022/06/08 08:04:01;;;;;;;4.70;1.90;;;;;;;;;;5015411;28;20601;-75
2022/06/08 08:06:26;;;;;;;2.85;1.80;;;;;;;;;;5015093;28;20736;-75
2022/06/08 08:08:51;;;;;;;3.03;1.90;;;;;;;;;;5015473;28;20062;-76
2022/06/08 08:11:17;;;;;;;3.72;1.80;;;;;;;;;;4997328;28;20494;-75
2022/06/08 08:13:42;;;;;;;5.70;1.80;;;;;;;;;;5014874;28;20034;-75
2022/06/08 08:16:07;;;;;;;2.80;1.87;;;;;;;;;;5015101;28;20266;-76
2022/06/08 08:18:35;;;;;;;3.13;1.87;;;;;;;;;;4997344;28;20251;-75
2022/06/08 08:21:00;;;;;;;3.50;2.00;;;;;;;;;;5014819;28;20347;-77
2022/06/08 08:23:26;;;;;;;6.50;1.93;;;;;;;;;;5014957;28;20108;-76
2022/06/08 08:25:52;;;;;;;3.97;1.70;;;;;;;;;;5014944;28;20339;-76
2022/06/08 08:28:18;;;;;;;4.30;1.75;;;;;;;;;;4997987;28;20732;-75
2022/06/08 08:30:43;;;;;;;2.20;1.60;;;;;;;;;;4997292;28;20036;-75
2022/06/08 08:33:08;;;;;;;3.17;1.80;;;;;;;;;;4981728;28;976814;-74
2022/06/08 08:35:33;;;;;;;6.00;3.83;;;;;;;;;;5015630;28;20025;-76
2022/06/08 08:38:00;;;;;;;3.40;1.83;;;;;;;;;;5016213;28;20687;-77
2022/06/08 08:40:45;;;;;;;5.00;2.10;;;;;;;;;;4998019;28;20756;-77
2022/06/08 08:43:22;;;;;;;5.35;1.80;;;;;;;;;;5015822;28;20112;-77
2022/06/08 08:46:25;;;;;;;6.10;1.80;;;;;;;;;;5015901;28;20032;-77
2022/06/08 08:48:57;;;;;;;2.00;1.70;;;;;;;;;;5015770;28;20180;-76
2022/06/08 08:51:26;;;;;;;3.50;1.52;;;;;;;;;;5015515;28;20052;-76
2022/06/08 08:54:10;;;;;;;2.92;1.33;;;;;;;;;;5015456;28;20134;-76
2022/06/08 08:56:38;;;;;;;3.65;1.23;;;;;;;;;;5015633;28;20036;-76
2022/06/08 08:59:13;;;;;;;2.88;1.50;;;;;;;;;;5015400;28;20384;-76
2022/06/08 09:01:40;;;;;;;2.25;1.00;;;;;;;;;;5015249;28;20025;-75
2022/06/08 09:04:14;;;;;;;1.35;0.90;;;;;;;;;;4997769;28;20024;-75
2022/06/08 09:06:40;;;;;;;2.55;0.90;;;;;;;;;;5015488;28;20390;-76
2022/06/08 09:09:12;;;;;;;2.90;0.90;;;;;;;;;;5015405;28;20026;-76
2022/06/08 09:11:40;;;;;;;2.08;1.25;;;;;;;;;;5015063;28;20487;-75
2022/06/08 09:14:08;;;;;;;1.70;1.13;;;;;;;;;;5015038;28;20022;-75
2022/06/08 09:16:39;;;;;;;1.38;0.90;;;;;;;;;;5014892;28;20030;-77
2022/06/08 09:19:28;;;;;;;1.45;0.80;;;;;;;;;;5015458;28;20379;-76
2022/06/08 09:21:59;;;;;;;1.85;0.90;;;;;;;;;;5015025;28;20033;-75
2022/06/08 09:24:29;;;;;;;2.15;0.98;;;;;;;;;;4997235;28;20479;-76
2022/06/08 09:27:05;;;;;;;1.25;0.88;;;;;;;;;;5014924;28;20553;-76
2022/06/08 09:29:30;;;;;;;1.52;0.95;;;;;;;;;;5015501;28;20036;-75
2022/06/08 09:31:56;;;;;;;1.48;1.00;;;;;;;;;;5014761;28;20017;-75
2022/06/08 09:34:32;;;;;;;3.28;1.23;;;;;;;;;;5015606;28;20022;-76
2022/06/08 09:37:11;;;;;;;5.28;1.23;;;;;;;;;;5014596;28;20494;-76
2022/06/08 09:39:37;;;;;;;5.57;1.48;;;;;;;;;;5014903;28;20029;-76
2022/06/08 09:42:38;;;;;;;2.78;1.30;;;;;;;;;;5014427;28;20017;-75
2022/06/08 09:45:25;;;;;;;4.07;1.15;;;;;;;;;;4997581;28;20487;-76
2022/06/08 09:51:35;;;;;;;2.83;1.30;;;;;;;;;;5014911;28;20040;-75
2022/06/08 09:54:11;;;;;;;4.30;1.10;;;;;;;;;;4996834;28;20113;-76
2022/06/08 09:57:02;;;;;;;2.28;1.13;;;;;;;;;;4996630;28;20042;-76
2022/06/08 09:59:49;;;;;;;2.83;1.50;;;;;;;;;;4996726;28;20033;-76
2022/06/08 10:02:32;;;;;;;2.20;1.08;;;;;;;;;;5014445;28;20376;-75
2022/06/08 10:05:15;;;;;;;3.67;1.17;;;;;;;;;;5014649;28;20033;-75
2022/06/08 10:08:09;;;;;;;1.45;1.00;;;;;;;;;;5014527;28;20510;-77
2022/06/08 10:10:44;;;;;;;4.05;1.20;;;;;;;;;;4996739;28;20089;-76
2022/06/08 10:13:20;;;;;;;1.50;0.90;;;;;;;;;;4996338;28;20026;-76
2022/06/08 10:16:01;;;;;;;2.10;0.98;;;;;;;;;;5014288;28;20049;-76
2022/06/08 10:18:33;;;;;;;3.55;1.35;;;;;;;;;;5014424;28;20036;-76
2022/06/08 10:21:02;;;;;;;1.10;1.00;;;;;;;;;;5014312;28;20029;-77
2022/06/08 10:23:45;;;;;;;2.60;1.15;;;;;;;;;;4995977;28;20026;-77
2022/06/08 10:26:22;;;;;;;1.88;1.20;;;;;;;;;;5013881;28;20460;-76
2022/06/08 10:29:01;;;;;;;1.65;1.15;;;;;;;;;;5013922;28;20036;-76
2022/06/08 10:31:48;;;;;;;4.38;1.27;;;;;;;;;;5014025;28;20105;-76
2022/06/08 10:34:27;;;;;;;1.83;1.17;;;;;;;;;;4995898;28;20504;-76
2022/06/08 10:37:04;;;;;;;7.30;1.90;;;;;;;;;;5013862;28;20065;-76
2022/06/08 10:39:32;;;;;;;1.80;1.20;;;;;;;;;;5014033;28;20483;-76
2022/06/08 10:42:41;;;;;;;2.25;1.00;;;;;;;;;;5013657;28;20087;-77
2022/06/08 10:45:27;;;;;;;4.80;1.30;;;;;;;;;;4995993;28;20021;-76
2022/06/08 10:48:01;;;;;;;1.67;1.10;;;;;;;;;;4995883;28;20120;-77
2022/06/08 10:50:34;;;;;;;1.20;1.10;;;;;;;;;;5013801;28;20030;-76
2022/06/08 10:56:34;;;;;;;1.52;1.10;;;;;;;;;;5013503;28;20115;-76
2022/06/08 10:59:02;;;;;;;3.65;1.30;;;;;;;;;;5013287;28;20380;-77
2022/06/08 11:01:52;;;;;;;1.63;1.10;;;;;;;;;;5013440;28;20033;-78
2022/06/08 11:04:26;;;;;;;1.90;1.08;;;;;;;;;;4995679;28;20491;-76
2022/06/08 11:06:58;;;;;;;1.85;1.05;;;;;;;;;;5013300;28;20075;-77
2022/06/08 11:09:33;;;;;;;1.10;1.00;;;;;;;;;;4995865;28;20025;-77
2022/06/08 11:12:04;;;;;;;1.63;1.00;;;;;;;;;;5013240;28;20084;-76
2022/06/08 11:14:51;;;;;;;1.08;0.95;;;;;;;;;;5013201;28;20030;-77
2022/06/08 11:17:26;;;;;;;7.68;1.10;;;;;;;;;;5013171;28;20022;-77
2022/06/08 11:19:57;;;;;;;1.65;0.80;;;;;;;;;;5013327;28;20022;-76
2022/06/08 11:22:31;;;;;;;4.93;1.30;;;;;;;;;;5013539;28;20148;-77
2022/06/08 11:24:58;;;;;;;;;;;;;;;;;;5013676;28;20044;-76
2022/06/08 11:27:31;;;;;;;2.13;1.25;;;;;;;;;;5013237;28;19909;-75
2022/06/08 11:30:06;;;;;;;4.80;1.23;;;;;;;;;;5013227;28;20036;-76
2022/06/08 11:32:32;;;;;;;4.70;1.10;;;;;;;;;;4995028;28;20260;-75
2022/06/08 11:35:15;;;;;;;2.23;1.00;;;;;;;;;;5012837;28;20026;-76
2022/06/08 11:38:07;;;;;;;1.48;1.10;;;;;;;;;;5012838;28;20105;-75
2022/06/08 11:40:36;;;;;;;3.63;1.40;;;;;;;;;;5012834;28;20483;-77
2022/06/08 11:43:21;;;;;;;1.73;1.33;;;;;;;;;;5013083;28;20038;-77
2022/06/08 11:45:52;;;;;;;1.83;1.20;;;;;;;;;;5012822;28;20336;-76
2022/06/08 11:48:29;;;;;;;1.40;1.30;;;;;;;;;;5012604;28;20480;-76
2022/06/08 11:51:04;;;;;;;1.52;1.30;;;;;;;;;;5012760;28;20033;-77
2022/06/08 11:53:35;;;;;;;3.20;1.33;;;;;;;;;;5012736;28;20030;-77
2022/06/08 11:56:29;;;;;;;4.43;1.35;;;;;;;;;;5013325;28;20368;-76
2022/06/08 11:58:57;;;;;;;1.55;1.27;;;;;;;;;;5013190;28;20030;-76
2022/06/08 12:01:26;;;;;;;2.35;1.40;;;;;;;;;;5012495;28;20030;-76
2022/06/08 12:04:00;;;;;;;1.65;1.40;;;;;;;;;;5012503;28;20491;-76
2022/06/08 12:06:30;;;;;;;5.00;1.30;;;;;;;;;;5012932;28;20030;-77
2022/06/08 12:09:10;;;;;;;2.40;1.40;;;;;;;;;;4995357;28;20029;-76
2022/06/08 12:11:40;;;;;;;2.38;1.35;;;;;;;;;;5014609;28;20030;-76
2022/06/08 12:14:26;;;;;;;2.03;1.40;;;;;;;;;;5016391;28;20506;-75
2022/06/08 12:16:53;;;;;;;3.08;1.30;;;;;;;;;;4998595;28;20026;-76
2022/06/08 12:19:19;;;;;;;5.05;1.60;;;;;;;;;;5016382;28;20033;-75
2022/06/08 12:21:50;;;;;;;2.67;1.40;;;;;;;;;;5016168;28;20026;-76
2022/06/08 12:24:15;;;;;;;4.05;1.58;;;;;;;;;;5016256;28;20026;-76
2022/06/08 12:26:55;;;;;;;5.70;1.80;;;;;;;;;;5015763;28;20092;-76
2022/06/08 12:29:23;;;;;;;4.70;1.55;;;;;;;;;;5015817;28;20488;-76
2022/06/08 12:32:14;;;;;;;2.75;1.58;;;;;;;;;;5015653;28;20058;-76
2022/06/08 12:34:43;;;;;;;1.92;1.40;;;;;;;;;;5016000;28;20049;-76
2022/06/08 12:37:32;;;;;;;1.80;1.30;;;;;;;;;;5015807;28;20113;-76
2022/06/08 12:40:20;;;;;;;1.67;1.30;;;;;;;;;;5015708;28;20022;-77
2022/06/08 12:42:53;;;;;;;1.55;1.40;;;;;;;;;;4997861;28;20494;-74
2022/06/08 12:45:37;;;;;;;1.70;1.40;;;;;;;;;;5016081;28;20108;-76
2022/06/08 12:48:14;;;;;;;;;;;;;;;;;;4998361;28;20124;-78
2022/06/08 12:50:40;;;;;;;2.38;1.30;;;;;;;;;;5015457;28;20332;-75
2022/06/08 12:53:05;;;;;;;2.85;1.52;;;;;;;;;;5015462;28;20108;-76
2022/06/08 12:55:36;;;;;;;3.77;1.60;;;;;;;;;;5015355;28;20030;-76
2022/06/08 12:58:02;;;;;;;4.63;2.58;;;;;;;;;;4997797;28;20286;-77
2022/06/08 13:00:36;;;;;;;1.92;1.50;;;;;;;;;;5015892;28;20030;-77
2022/06/08 13:03:15;;;;;;;5.70;1.50;;;;;;;;;;5015399;28;20030;-76
2022/06/08 13:05:40;;;;;;;1.75;1.30;;;;;;;;;;5015554;28;20033;-76
2022/06/08 13:08:06;;;;;;;3.15;1.50;;;;;;;;;;5015067;28;20391;-74
2022/06/08 13:10:32;;;;;;;2.53;1.38;;;;;;;;;;4997589;28;20117;-76
2022/06/08 13:13:03;;;;;;;2.80;1.73;;;;;;;;;;5015660;28;20037;-76
2022/06/08 13:15:39;;;;;;;1.90;1.42;;;;;;;;;;4997735;28;20022;-77
2022/06/08 13:18:05;;;;;;;2.70;1.40;;;;;;;;;;5015234;28;20021;-77
2022/06/08 13:20:35;;;;;;;5.35;1.58;;;;;;;;;;5015414;28;20037;-76
2022/06/08 13:23:02;;;;;;;3.38;1.20;;;;;;;;;;5014014;28;20036;-76
2022/06/08 13:25:28;;;;;;;6.97;1.42;;;;;;;;;;4997313;28;20079;-76
2022/06/08 13:27:54;;;;;;;2.55;1.42;;;;;;;;;;5015183;28;20387;-76
2022/06/08 13:30:30;;;;;;;7.32;1.40;;;;;;;;;;5014913;28;20038;-76
2022/06/08 13:32:57;;;;;;;5.45;1.50;;;;;;;;;;4997135;28;20079;-78
2022/06/08 13:35:24;;;;;;;1.80;1.40;;;;;;;;;;4997602;28;20034;-76
2022/06/08 13:37:51;;;;;;;4.22;1.40;;;;;;;;;;5014833;28;20083;-77
2022/06/08 13:40:18;;;;;;;2.30;1.25;;;;;;;;;;5014618;28;20041;-77
2022/06/08 13:42:45;;;;;;;3.03;1.50;;;;;;;;;;5014707;28;20033;-76
2022/06/08 13:45:15;;;;;;;4.32;1.60;;;;;;;;;;5014868;28;20108;-77
2022/06/08 13:47:43;;;;;;;2.72;1.83;;;;;;;;;;5014395;28;20164;-76
2022/06/08 13:50:10;;;;;;;3.25;2.13;;;;;;;;;;5014439;28;20021;-77
2022/06/08 13:52:36;;;;;;;4.35;2.20;;;;;;;;;;5014298;28;20464;-76
2022/06/08 13:55:08;;;;;;;3.92;2.10;;;;;;;;;;4996988;28;20092;-77
2022/06/08 13:57:33;;;;;;;6.18;1.80;;;;;;;;;;5014457;28;20053;-77
2022/06/08 13:59:59;;;;;;;6.03;1.77;;;;;;;;;;5014341;28;20446;-77
2022/06/08 14:02:27;;;;;;;3.70;1.95;;;;;;;;;;5014128;28;20033;-78
2022/06/08 14:04:57;;;;;;;4.38;1.90;;;;;;;;;;4996637;28;20458;-76
2022/06/08 14:13:16;;;;;;;3.33;1.60;;;;;;;;;;5014518;28;20033;-77
2022/06/08 14:15:43;;;;;;;3.25;1.65;;;;;;;;;;5013900;28;20061;-77
2022/06/08 14:18:17;;;;;;;2.65;1.50;;;;;;;;;;5013951;28;20167;-76
2022/06/08 14:20:42;;;;;;;1.88;1.55;;;;;;;;;;5014109;28;20468;-77
2022/06/08 14:23:12;;;;;;;3.40;1.40;;;;;;;;;;5013590;28;20032;-77
2022/06/08 14:25:38;;;;;;;3.35;1.70;;;;;;;;;;5013911;28;20029;-75
2022/06/08 14:28:05;;;;;;;4.72;1.60;;;;;;;;;;5014194;28;20522;-76
2022/06/08 14:30:30;;;;;;;5.50;1.60;;;;;;;;;;5013771;28;20544;-77
2022/06/08 14:32:59;;;;;;;2.67;1.60;;;;;;;;;;5013627;28;20042;-78
2022/06/08 14:35:31;;;;;;;1.63;1.40;;;;;;;;;;5013648;28;20022;-77
2022/06/08 14:37:58;;;;;;;1.37;1.27;;;;;;;;;;5013946;28;20527;-78
2022/06/08 14:40:31;;;;;;;6.00;1.30;;;;;;;;;;5013953;28;20043;-75
2022/06/08 14:42:57;;;;;;;2.58;1.13;;;;;;;;;;5013772;28;20112;-76
2022/06/08 14:45:23;;;;;;;1.63;1.30;;;;;;;;;;4995946;28;20113;-76
2022/06/08 14:47:49;;;;;;;1.50;1.10;;;;;;;;;;5013748;28;20168;-77
2022/06/08 14:50:18;;;;;;;1.60;1.20;;;;;;;;;;5013513;28;20057;-77
2022/06/08 14:52:45;;;;;;;4.60;1.30;;;;;;;;;;5013670;28;20029;-76
2022/06/08 14:57:58;;;;;;;1.83;0.93;;;;;;;;;;5014080;28;20557;-76
2022/06/08 15:00:23;;;;;;;3.97;1.00;;;;;;;;;;4996083;28;20025;-77
2022/06/08 15:02:49;;;;;;;3.47;1.10;;;;;;;;;;5013672;28;20491;-77
2022/06/08 15:05:20;;;;;;;2.35;0.90;;;;;;;;;;5013715;28;20036;-76
2022/06/08 15:07:47;;;;;;;1.35;0.93;;;;;;;;;;4995887;28;20025;-76
2022/06/08 15:10:14;;;;;;;3.38;1.00;;;;;;;;;;4995724;28;20029;-76
2022/06/08 15:12:40;;;;;;;4.07;0.90;;;;;;;;;;5013376;28;20481;-76
2022/06/08 15:15:13;;;;;;;1.38;0.90;;;;;;;;;;4995696;28;20032;-77
2022/06/08 15:17:39;;;;;;;0.93;0.90;;;;;;;;;;5013513;28;20022;-78
2022/06/08 15:20:18;;;;;;;1.63;0.98;;;;;;;;;;5013333;28;20104;-77